sensor_id;sensor_type;location;lat;lon;timestamp;P1;durP1;ratioP1;P2;durP2;ratioP2
64950;SDS011;51482;47.014;7.652;2023-04-10T00:00:28;6.50;;;5.90;;
64950;SDS011;51482;47.014;7.652;2023-04-10T00:02:55;7.07;;;6.33;;
64950;SDS011;51482;47.014;7.652;2023-04-10T00:05:22;6.47;;;5.83;;
64950;SDS011;51482;47.014;7.652;2023-04-10T00:07:48;10.30;;;9.50;;
64950;SDS011;51482;47.014;7.652;2023-04-10T00:10:13;6.70;;;6.00;;
64950;SDS011;51482;47.014;7.652;2023-04-10T00:12:39;11.03;;;10.13;;
64950;SDS011;51482;47.014;7.652;2023-04-10T00:15:04;7.77;;;7.07;;
64950;SDS011;51482;47.014;7.652;2023-04-10T00:17:31;6.80;;;6.20;;
64950;SDS011;51482;47.014;7.652;2023-04-10T00:19:56;6.43;;;5.77;;
64950;SDS011;51482;47.014;7.652;2023-04-10T00:22:23;6.17;;;5.57;;
64950;SDS011;51482;47.014;7.652;2023-04-10T00:24:48;11.00;;;10.10;;
64950;SDS011;51482;47.014;7.652;2023-04-10T00:27:14;7.53;;;6.43;;
64950;SDS011;51482;47.014;7.652;2023-04-10T00:29:40;10.10;;;9.20;;
64950;SDS011;51482;47.014;7.652;2023-04-10T00:32:05;9.03;;;5.93;;
64950;SDS011;51482;47.014;7.652;2023-04-10T00:34:31;6.53;;;5.87;;
64950;SDS011;51482;47.014;7.652;2023-04-10T00:36:57;7.03;;;6.33;;
64950;SDS011;51482;47.014;7.652;2023-04-10T00:39:23;6.40;;;5.80;;
64950;SDS011;51482;47.014;7.652;2023-04-10T00:41:48;9.93;;;9.13;;
64950;SDS011;51482;47.014;7.652;2023-04-10T00:44:14;7.83;;;6.37;;
64950;SDS011;51482;47.014;7.652;2023-04-10T00:46:40;10.60;;;9.60;;
64950;SDS011;51482;47.014;7.652;2023-04-10T00:49:05;7.37;;;6.53;;
64950;SDS011;51482;47.014;7.652;2023-04-10T00:51:33;8.00;;;6.97;;
64950;SDS011;51482;47.014;7.652;2023-04-10T00:54:00;8.47;;;6.50;;
64950;SDS011;51482;47.014;7.652;2023-04-10T00:56:26;6.50;;;5.90;;
64950;SDS011;51482;47.014;7.652;2023-04-10T00:58:53;7.00;;;6.17;;
64950;SDS011;51482;47.014;7.652;2023-04-10T01:01:19;8.80;;;6.13;;
64950;SDS011;51482;47.014;7.652;2023-04-10T01:03:45;10.43;;;9.53;;
64950;SDS011;51482;47.014;7.652;2023-04-10T01:08:52;9.40;;;8.60;;
64950;SDS011;51482;47.014;7.652;2023-04-10T01:14:22;8.17;;;6.23;;
64950;SDS011;51482;47.014;7.652;2023-04-10T01:16:55;9.30;;;7.17;;
64950;SDS011;51482;47.014;7.652;2023-04-10T01:21:56;7.73;;;6.93;;
64950;SDS011;51482;47.014;7.652;2023-04-10T01:30:16;7.67;;;6.87;;
64950;SDS011;51482;47.014;7.652;2023-04-10T01:32:45;11.10;;;10.10;;
64950;SDS011;51482;47.014;7.652;2023-04-10T01:35:12;6.97;;;5.90;;
64950;SDS011;51482;47.014;7.652;2023-04-10T01:37:40;10.70;;;9.70;;
64950;SDS011;51482;47.014;7.652;2023-04-10T01:40:09;8.27;;;7.20;;
64950;SDS011;51482;47.014;7.652;2023-04-10T01:42:41;10.53;;;9.73;;
64950;SDS011;51482;47.014;7.652;2023-04-10T01:45:22;9.57;;;6.43;;
64950;SDS011;51482;47.014;7.652;2023-04-10T01:47:51;9.97;;;7.83;;
64950;SDS011;51482;47.014;7.652;2023-04-10T01:50:19;9.37;;;5.73;;
64950;SDS011;51482;47.014;7.652;2023-04-10T01:52:48;10.17;;;9.37;;
64950;SDS011;51482;47.014;7.652;2023-04-10T01:55:15;7.77;;;6.33;;
64950;SDS011;51482;47.014;7.652;2023-04-10T01:57:42;10.43;;;9.63;;
64950;SDS011;51482;47.014;7.652;2023-04-10T02:00:09;8.43;;;6.50;;
64950;SDS011;51482;47.014;7.652;2023-04-10T02:02:35;9.87;;;7.33;;
64950;SDS011;51482;47.014;7.652;2023-04-10T02:05:01;7.30;;;6.23;;
64950;SDS011;51482;47.014;7.652;2023-04-10T02:07:38;7.00;;;6.30;;
64950;SDS011;51482;47.014;7.652;2023-04-10T02:10:23;7.73;;;6.73;;
64950;SDS011;51482;47.014;7.652;2023-04-10T02:13:00;11.10;;;8.43;;
64950;SDS011;51482;47.014;7.652;2023-04-10T02:15:30;7.17;;;6.47;;
64950;SDS011;51482;47.014;7.652;2023-04-10T02:17:57;7.93;;;6.67;;
64950;SDS011;51482;47.014;7.652;2023-04-10T02:20:23;9.37;;;6.73;;
64950;SDS011;51482;47.014;7.652;2023-04-10T02:22:50;9.30;;;8.40;;
64950;SDS011;51482;47.014;7.652;2023-04-10T02:25:17;7.77;;;6.67;;
64950;SDS011;51482;47.014;7.652;2023-04-10T02:27:42;10.80;;;9.80;;
64950;SDS011;51482;47.014;7.652;2023-04-10T02:30:08;7.53;;;6.07;;
64950;SDS011;51482;47.014;7.652;2023-04-10T02:32:35;8.70;;;7.93;;
64950;SDS011;51482;47.014;7.652;2023-04-10T02:35:00;7.07;;;6.37;;
64950;SDS011;51482;47.014;7.652;2023-04-10T02:37:27;7.60;;;6.00;;
64950;SDS011;51482;47.014;7.652;2023-04-10T02:39:52;7.50;;;6.70;;
64950;SDS011;51482;47.014;7.652;2023-04-10T02:42:21;7.93;;;6.87;;
64950;SDS011;51482;47.014;7.652;2023-04-10T02:44:47;9.77;;;8.93;;
64950;SDS011;51482;47.014;7.652;2023-04-10T02:47:12;8.53;;;7.43;;
64950;SDS011;51482;47.014;7.652;2023-04-10T02:49:39;10.97;;;9.97;;
64950;SDS011;51482;47.014;7.652;2023-04-10T02:52:04;8.23;;;6.27;;
64950;SDS011;51482;47.014;7.652;2023-04-10T02:54:30;7.87;;;6.67;;
64950;SDS011;51482;47.014;7.652;2023-04-10T02:56:55;7.93;;;6.80;;
64950;SDS011;51482;47.014;7.652;2023-04-10T02:59:21;7.00;;;6.30;;
64950;SDS011;51482;47.014;7.652;2023-04-10T03:01:47;11.40;;;10.40;;
64950;SDS011;51482;47.014;7.652;2023-04-10T03:04:16;8.23;;;6.50;;
64950;SDS011;51482;47.014;7.652;2023-04-10T03:06:41;11.37;;;10.47;;
64950;SDS011;51482;47.014;7.652;2023-04-10T03:09:07;7.90;;;6.90;;
64950;SDS011;51482;47.014;7.652;2023-04-10T03:11:32;7.27;;;6.57;;
64950;SDS011;51482;47.014;7.652;2023-04-10T03:13:58;7.47;;;6.40;;
64950;SDS011;51482;47.014;7.652;2023-04-10T03:16:23;7.27;;;6.30;;
64950;SDS011;51482;47.014;7.652;2023-04-10T03:18:49;11.17;;;10.23;;
64950;SDS011;51482;47.014;7.652;2023-04-10T03:21:15;7.53;;;6.10;;
64950;SDS011;51482;47.014;7.652;2023-04-10T03:23:40;10.63;;;9.47;;
64950;SDS011;51482;47.014;7.652;2023-04-10T03:26:06;8.00;;;6.47;;
64950;SDS011;51482;47.014;7.652;2023-04-10T03:28:32;7.57;;;6.87;;
64950;SDS011;51482;47.014;7.652;2023-04-10T03:31:00;8.13;;;7.07;;
64950;SDS011;51482;47.014;7.652;2023-04-10T03:33:26;7.43;;;6.63;;
64950;SDS011;51482;47.014;7.652;2023-04-10T03:35:52;9.10;;;8.23;;
64950;SDS011;51482;47.014;7.652;2023-04-10T03:38:17;9.07;;;6.67;;
64950;SDS011;51482;47.014;7.652;2023-04-10T03:40:43;10.80;;;9.90;;
64950;SDS011;51482;47.014;7.652;2023-04-10T03:43:09;7.67;;;6.87;;
64950;SDS011;51482;47.014;7.652;2023-04-10T03:45:34;8.23;;;7.50;;
64950;SDS011;51482;47.014;7.652;2023-04-10T03:48:00;6.80;;;6.03;;
64950;SDS011;51482;47.014;7.652;2023-04-10T03:50:25;7.40;;;6.57;;
64950;SDS011;51482;47.014;7.652;2023-04-10T03:52:51;9.27;;;8.47;;
64950;SDS011;51482;47.014;7.652;2023-04-10T03:55:16;8.33;;;7.17;;
64950;SDS011;51482;47.014;7.652;2023-04-10T03:57:45;11.63;;;10.70;;
64950;SDS011;51482;47.014;7.652;2023-04-10T04:00:14;7.93;;;6.80;;
64950;SDS011;51482;47.014;7.652;2023-04-10T04:02:41;10.20;;;9.30;;
64950;SDS011;51482;47.014;7.652;2023-04-10T04:05:07;7.10;;;6.40;;
64950;SDS011;51482;47.014;7.652;2023-04-10T04:07:33;7.43;;;6.57;;
64950;SDS011;51482;47.014;7.652;2023-04-10T04:09:58;8.17;;;7.33;;
64950;SDS011;51482;47.014;7.652;2023-04-10T04:12:24;8.03;;;7.20;;
64950;SDS011;51482;47.014;7.652;2023-04-10T04:14:50;10.33;;;8.87;;
64950;SDS011;51482;47.014;7.652;2023-04-10T04:17:16;8.03;;;7.23;;
64950;SDS011;51482;47.014;7.652;2023-04-10T04:19:41;11.27;;;10.37;;
64950;SDS011;51482;47.014;7.652;2023-04-10T04:22:07;7.73;;;6.93;;
64950;SDS011;51482;47.014;7.652;2023-04-10T04:24:32;7.83;;;7.03;;
64950;SDS011;51482;47.014;7.652;2023-04-10T04:26:58;8.90;;;6.63;;
64950;SDS011;51482;47.014;7.652;2023-04-10T04:29:23;8.10;;;6.47;;
64950;SDS011;51482;47.014;7.652;2023-04-10T04:31:49;12.00;;;10.90;;
64950;SDS011;51482;47.014;7.652;2023-04-10T04:34:15;8.20;;;7.00;;
64950;SDS011;51482;47.014;7.652;2023-04-10T04:36:40;11.43;;;10.47;;
64950;SDS011;51482;47.014;7.652;2023-04-10T04:39:06;7.30;;;6.50;;
64950;SDS011;51482;47.014;7.652;2023-04-10T04:41:32;8.23;;;7.07;;
64950;SDS011;51482;47.014;7.652;2023-04-10T04:43:58;7.43;;;6.70;;
64950;SDS011;51482;47.014;7.652;2023-04-10T04:46:25;7.30;;;6.60;;
64950;SDS011;51482;47.014;7.652;2023-04-10T04:48:51;10.00;;;9.10;;
64950;SDS011;51482;47.014;7.652;2023-04-10T04:51:16;7.07;;;6.37;;
64950;SDS011;51482;47.014;7.652;2023-04-10T04:53:42;10.77;;;9.70;;
64950;SDS011;51482;47.014;7.652;2023-04-10T04:56:07;7.53;;;6.70;;
64950;SDS011;51482;47.014;7.652;2023-04-10T04:58:33;9.13;;;8.23;;
64950;SDS011;51482;47.014;7.652;2023-04-10T05:00:59;7.53;;;6.67;;
64950;SDS011;51482;47.014;7.652;2023-04-10T05:03:24;8.73;;;7.83;;
64950;SDS011;51482;47.014;7.652;2023-04-10T05:05:52;9.93;;;9.03;;
64950;SDS011;51482;47.014;7.652;2023-04-10T05:08:18;7.50;;;6.80;;
64950;SDS011;51482;47.014;7.652;2023-04-10T05:10:43;11.80;;;10.73;;
64950;SDS011;51482;47.014;7.652;2023-04-10T05:13:09;8.40;;;7.43;;
64950;SDS011;51482;47.014;7.652;2023-04-10T05:15:34;12.00;;;8.67;;
64950;SDS011;51482;47.014;7.652;2023-04-10T05:18:00;8.57;;;7.07;;
64950;SDS011;51482;47.014;7.652;2023-04-10T05:20:26;8.57;;;7.70;;
64950;SDS011;51482;47.014;7.652;2023-04-10T05:22:51;10.80;;;9.87;;
64950;SDS011;51482;47.014;7.652;2023-04-10T05:25:17;9.33;;;8.13;;
64950;SDS011;51482;47.014;7.652;2023-04-10T05:27:43;12.30;;;11.20;;
64950;SDS011;51482;47.014;7.652;2023-04-10T05:30:08;9.13;;;7.87;;
64950;SDS011;51482;47.014;7.652;2023-04-10T05:32:34;9.57;;;8.33;;
64950;SDS011;51482;47.014;7.652;2023-04-10T05:35:00;9.60;;;7.97;;
64950;SDS011;51482;47.014;7.652;2023-04-10T05:37:25;8.83;;;7.93;;
64950;SDS011;51482;47.014;7.652;2023-04-10T05:39:51;11.50;;;10.47;;
64950;SDS011;51482;47.014;7.652;2023-04-10T05:42:16;8.43;;;7.63;;
64950;SDS011;51482;47.014;7.652;2023-04-10T05:44:43;11.90;;;10.90;;
64950;SDS011;51482;47.014;7.652;2023-04-10T05:47:09;9.60;;;7.30;;
64950;SDS011;51482;47.014;7.652;2023-04-10T05:49:34;9.63;;;8.47;;
64950;SDS011;51482;47.014;7.652;2023-04-10T05:52:00;8.73;;;7.40;;
64950;SDS011;51482;47.014;7.652;2023-04-10T05:54:25;10.47;;;8.10;;
64950;SDS011;51482;47.014;7.652;2023-04-10T05:56:51;11.97;;;10.77;;
64950;SDS011;51482;47.014;7.652;2023-04-10T05:59:16;8.80;;;7.60;;
64950;SDS011;51482;47.014;7.652;2023-04-10T06:01:42;13.67;;;12.13;;
64950;SDS011;51482;47.014;7.652;2023-04-10T06:04:08;12.73;;;9.03;;
64950;SDS011;51482;47.014;7.652;2023-04-10T06:06:34;12.03;;;9.80;;
64950;SDS011;51482;47.014;7.652;2023-04-10T06:09:00;9.37;;;8.40;;
64950;SDS011;51482;47.014;7.652;2023-04-10T06:11:25;10.70;;;8.90;;
64950;SDS011;51482;47.014;7.652;2023-04-10T06:13:51;12.63;;;11.33;;
64950;SDS011;51482;47.014;7.652;2023-04-10T06:16:16;11.63;;;10.43;;
64950;SDS011;51482;47.014;7.652;2023-04-10T06:18:42;14.80;;;13.17;;
64950;SDS011;51482;47.014;7.652;2023-04-10T06:21:08;12.57;;;9.03;;
64950;SDS011;51482;47.014;7.652;2023-04-10T06:23:33;13.97;;;11.03;;
64950;SDS011;51482;47.014;7.652;2023-04-10T06:25:59;14.13;;;9.37;;
64950;SDS011;51482;47.014;7.652;2023-04-10T06:28:25;10.37;;;9.10;;
64950;SDS011;51482;47.014;7.652;2023-04-10T06:30:51;14.03;;;10.50;;
64950;SDS011;51482;47.014;7.652;2023-04-10T06:33:17;14.53;;;8.93;;
64950;SDS011;51482;47.014;7.652;2023-04-10T06:35:42;14.47;;;12.63;;
64950;SDS011;51482;47.014;7.652;2023-04-10T06:38:08;15.37;;;9.17;;
64950;SDS011;51482;47.014;7.652;2023-04-10T06:40:33;12.47;;;9.87;;
64950;SDS011;51482;47.014;7.652;2023-04-10T06:42:59;11.60;;;9.27;;
64950;SDS011;51482;47.014;7.652;2023-04-10T06:45:25;10.53;;;8.53;;
64950;SDS011;51482;47.014;7.652;2023-04-10T06:47:51;11.97;;;10.67;;
64950;SDS011;51482;47.014;7.652;2023-04-10T06:50:16;10.33;;;8.77;;
64950;SDS011;51482;47.014;7.652;2023-04-10T06:52:47;14.27;;;12.77;;
64950;SDS011;51482;47.014;7.652;2023-04-10T06:55:12;10.60;;;8.73;;
64950;SDS011;51482;47.014;7.652;2023-04-10T06:57:38;12.30;;;11.03;;
64950;SDS011;51482;47.014;7.652;2023-04-10T07:00:05;10.77;;;9.13;;
64950;SDS011;51482;47.014;7.652;2023-04-10T07:02:31;11.27;;;8.63;;
64950;SDS011;51482;47.014;7.652;2023-04-10T07:04:56;13.60;;;9.97;;
64950;SDS011;51482;47.014;7.652;2023-04-10T07:07:22;11.97;;;9.57;;
64950;SDS011;51482;47.014;7.652;2023-04-10T07:09:48;14.77;;;13.33;;
64950;SDS011;51482;47.014;7.652;2023-04-10T07:12:13;10.10;;;8.73;;
64950;SDS011;51482;47.014;7.652;2023-04-10T07:14:39;13.50;;;12.20;;
64950;SDS011;51482;47.014;7.652;2023-04-10T07:17:05;11.50;;;8.47;;
64950;SDS011;51482;47.014;7.652;2023-04-10T07:19:30;9.23;;;8.07;;
64950;SDS011;51482;47.014;7.652;2023-04-10T07:21:56;11.33;;;9.83;;
64950;SDS011;51482;47.014;7.652;2023-04-10T07:24:21;9.47;;;8.40;;
64950;SDS011;51482;47.014;7.652;2023-04-10T07:26:47;12.13;;;10.87;;
64950;SDS011;51482;47.014;7.652;2023-04-10T07:29:13;10.67;;;8.63;;
64950;SDS011;51482;47.014;7.652;2023-04-10T07:31:39;11.90;;;10.80;;
64950;SDS011;51482;47.014;7.652;2023-04-10T07:34:05;9.03;;;8.00;;
64950;SDS011;51482;47.014;7.652;2023-04-10T07:36:31;8.73;;;7.70;;
64950;SDS011;51482;47.014;7.652;2023-04-10T07:38:56;9.80;;;8.80;;
64950;SDS011;51482;47.014;7.652;2023-04-10T07:41:22;10.37;;;8.80;;
64950;SDS011;51482;47.014;7.652;2023-04-10T07:43:48;11.63;;;10.63;;
64950;SDS011;51482;47.014;7.652;2023-04-10T07:46:15;8.40;;;7.50;;
64950;SDS011;51482;47.014;7.652;2023-04-10T07:48:41;11.67;;;10.77;;
64950;SDS011;51482;47.014;7.652;2023-04-10T07:51:08;8.47;;;7.67;;
64950;SDS011;51482;47.014;7.652;2023-04-10T07:53:34;9.33;;;8.43;;
64950;SDS011;51482;47.014;7.652;2023-04-10T07:56:00;12.07;;;9.63;;
64950;SDS011;51482;47.014;7.652;2023-04-10T07:58:26;9.13;;;8.17;;
64950;SDS011;51482;47.014;7.652;2023-04-10T08:00:52;9.77;;;8.97;;
64950;SDS011;51482;47.014;7.652;2023-04-10T08:03:17;7.80;;;7.10;;
64950;SDS011;51482;47.014;7.652;2023-04-10T08:05:43;10.70;;;9.77;;
64950;SDS011;51482;47.014;7.652;2023-04-10T08:08:08;8.30;;;7.43;;
64950;SDS011;51482;47.014;7.652;2023-04-10T08:10:37;8.13;;;7.43;;
64950;SDS011;51482;47.014;7.652;2023-04-10T08:13:03;7.23;;;6.53;;
64950;SDS011;51482;47.014;7.652;2023-04-10T08:15:29;8.17;;;7.00;;
64950;SDS011;51482;47.014;7.652;2023-04-10T08:17:55;8.50;;;6.50;;
64950;SDS011;51482;47.014;7.652;2023-04-10T08:20:20;8.40;;;7.10;;
64950;SDS011;51482;47.014;7.652;2023-04-10T08:22:46;9.87;;;9.07;;
64950;SDS011;51482;47.014;7.652;2023-04-10T08:25:12;7.13;;;6.53;;
64950;SDS011;51482;47.014;7.652;2023-04-10T08:27:37;8.87;;;8.17;;
64950;SDS011;51482;47.014;7.652;2023-04-10T08:30:03;6.20;;;5.60;;
64950;SDS011;51482;47.014;7.652;2023-04-10T08:32:29;7.07;;;6.40;;
64950;SDS011;51482;47.014;7.652;2023-04-10T08:34:55;7.27;;;6.57;;
64950;SDS011;51482;47.014;7.652;2023-04-10T08:37:20;7.10;;;6.40;;
64950;SDS011;51482;47.014;7.652;2023-04-10T08:39:46;9.27;;;8.53;;
64950;SDS011;51482;47.014;7.652;2023-04-10T08:42:12;6.63;;;5.93;;
64950;SDS011;51482;47.014;7.652;2023-04-10T08:44:37;8.20;;;7.50;;
64950;SDS011;51482;47.014;7.652;2023-04-10T08:47:03;7.00;;;6.30;;
64950;SDS011;51482;47.014;7.652;2023-04-10T08:51:56;7.10;;;6.40;;
64950;SDS011;51482;47.014;7.652;2023-04-10T08:54:29;6.40;;;5.80;;
64950;SDS011;51482;47.014;7.652;2023-04-10T08:56:57;6.07;;;5.47;;
64950;SDS011;51482;47.014;7.652;2023-04-10T08:59:26;5.93;;;5.43;;
64950;SDS011;51482;47.014;7.652;2023-04-10T09:01:53;7.40;;;6.73;;
64950;SDS011;51482;47.014;7.652;2023-04-10T09:04:20;6.53;;;5.87;;
64950;SDS011;51482;47.014;7.652;2023-04-10T09:06:46;8.17;;;7.47;;
64950;SDS011;51482;47.014;7.652;2023-04-10T09:09:11;7.00;;;5.70;;
64950;SDS011;51482;47.014;7.652;2023-04-10T09:14:19;6.93;;;6.23;;
64950;SDS011;51482;47.014;7.652;2023-04-10T09:16:49;8.57;;;7.90;;
64950;SDS011;51482;47.014;7.652;2023-04-10T09:19:29;6.43;;;5.70;;
64950;SDS011;51482;47.014;7.652;2023-04-10T09:21:55;6.57;;;5.90;;
64950;SDS011;51482;47.014;7.652;2023-04-10T09:24:22;6.30;;;5.78;;
64950;SDS011;51482;47.014;7.652;2023-04-10T09:26:48;8.47;;;7.87;;
64950;SDS011;51482;47.014;7.652;2023-04-10T09:29:13;6.18;;;5.68;;
64950;SDS011;51482;47.014;7.652;2023-04-10T09:31:40;8.20;;;7.60;;
64950;SDS011;51482;47.014;7.652;2023-04-10T09:34:16;5.87;;;5.33;;
64950;SDS011;51482;47.014;7.652;2023-04-10T09:36:53;9.13;;;8.43;;
64950;SDS011;51482;47.014;7.652;2023-04-10T09:39:32;5.93;;;5.32;;
64950;SDS011;51482;47.014;7.652;2023-04-10T09:41:58;6.13;;;5.63;;
64950;SDS011;51482;47.014;7.652;2023-04-10T09:44:27;5.88;;;5.22;;
64950;SDS011;51482;47.014;7.652;2023-04-10T09:49:47;7.93;;;7.22;;
64950;SDS011;51482;47.014;7.652;2023-04-10T09:52:17;6.35;;;5.80;;
64950;SDS011;51482;47.014;7.652;2023-04-10T09:55:01;8.60;;;8.00;;
64950;SDS011;51482;47.014;7.652;2023-04-10T09:57:28;5.57;;;5.05;;
64950;SDS011;51482;47.014;7.652;2023-04-10T09:59:56;5.35;;;4.85;;
64950;SDS011;51482;47.014;7.652;2023-04-10T10:02:24;6.00;;;5.32;;
64950;SDS011;51482;47.014;7.652;2023-04-10T10:04:52;6.63;;;6.07;;
64950;SDS011;51482;47.014;7.652;2023-04-10T10:07:19;6.20;;;5.65;;
64950;SDS011;51482;47.014;7.652;2023-04-10T10:09:47;8.10;;;7.40;;
64950;SDS011;51482;47.014;7.652;2023-04-10T10:12:33;5.80;;;5.30;;
64950;SDS011;51482;47.014;7.652;2023-04-10T10:15:10;5.60;;;5.10;;
64950;SDS011;51482;47.014;7.652;2023-04-10T10:20:10;5.18;;;4.68;;
64950;SDS011;51482;47.014;7.652;2023-04-10T10:22:37;7.00;;;6.47;;
64950;SDS011;51482;47.014;7.652;2023-04-10T10:25:03;6.25;;;5.25;;
64950;SDS011;51482;47.014;7.652;2023-04-10T10:27:31;6.65;;;6.05;;
64950;SDS011;51482;47.014;7.652;2023-04-10T10:30:01;6.07;;;5.57;;
64950;SDS011;51482;47.014;7.652;2023-04-10T10:32:28;5.47;;;4.97;;
64950;SDS011;51482;47.014;7.652;2023-04-10T10:34:54;6.63;;;6.00;;
64950;SDS011;51482;47.014;7.652;2023-04-10T10:37:21;5.47;;;4.97;;
64950;SDS011;51482;47.014;7.652;2023-04-10T10:42:33;5.93;;;5.47;;
64950;SDS011;51482;47.014;7.652;2023-04-10T10:45:10;4.72;;;4.32;;
64950;SDS011;51482;47.014;7.652;2023-04-10T10:47:47;7.45;;;6.85;;
64950;SDS011;51482;47.014;7.652;2023-04-10T10:50:17;5.05;;;4.65;;
64950;SDS011;51482;47.014;7.652;2023-04-10T10:52:49;6.82;;;6.38;;
64950;SDS011;51482;47.014;7.652;2023-04-10T10:57:53;7.63;;;7.13;;
64950;SDS011;51482;47.014;7.652;2023-04-10T11:00:20;3.80;;;3.50;;
64950;SDS011;51482;47.014;7.652;2023-04-10T11:05:50;4.95;;;4.55;;
64950;SDS011;51482;47.014;7.652;2023-04-10T11:11:03;4.43;;;4.13;;
64950;SDS011;51482;47.014;7.652;2023-04-10T11:14:10;6.65;;;6.15;;
64950;SDS011;51482;47.014;7.652;2023-04-10T11:19:00;5.18;;;4.70;;
64950;SDS011;51482;47.014;7.652;2023-04-10T11:21:33;4.82;;;4.47;;
64950;SDS011;51482;47.014;7.652;2023-04-10T11:29:00;5.68;;;5.18;;
64950;SDS011;51482;47.014;7.652;2023-04-10T11:31:30;5.45;;;4.88;;
64950;SDS011;51482;47.014;7.652;2023-04-10T11:34:00;5.55;;;5.05;;
64950;SDS011;51482;47.014;7.652;2023-04-10T11:36:27;5.22;;;4.82;;
64950;SDS011;51482;47.014;7.652;2023-04-10T11:39:00;4.82;;;4.40;;
64950;SDS011;51482;47.014;7.652;2023-04-10T11:41:33;5.20;;;4.70;;
64950;SDS011;51482;47.014;7.652;2023-04-10T11:44:01;4.43;;;3.72;;
64950;SDS011;51482;47.014;7.652;2023-04-10T11:46:28;4.50;;;4.20;;
64950;SDS011;51482;47.014;7.652;2023-04-10T11:48:58;5.38;;;4.97;;
64950;SDS011;51482;47.014;7.652;2023-04-10T11:51:25;4.00;;;3.70;;
64950;SDS011;51482;47.014;7.652;2023-04-10T11:54:08;5.15;;;4.82;;
64950;SDS011;51482;47.014;7.652;2023-04-10T11:56:55;5.78;;;5.43;;
64950;SDS011;51482;47.014;7.652;2023-04-10T11:59:26;4.00;;;3.60;;
64950;SDS011;51482;47.014;7.652;2023-04-10T12:01:52;4.47;;;4.18;;
64950;SDS011;51482;47.014;7.652;2023-04-10T12:04:26;3.90;;;3.60;;
64950;SDS011;51482;47.014;7.652;2023-04-10T12:06:54;4.97;;;4.68;;
64950;SDS011;51482;47.014;7.652;2023-04-10T12:09:21;3.38;;;3.10;;
64950;SDS011;51482;47.014;7.652;2023-04-10T12:12:26;5.88;;;5.38;;
64950;SDS011;51482;47.014;7.652;2023-04-10T12:14:40;5.53;;;5.10;;
64950;SDS011;51482;47.014;7.652;2023-04-10T12:17:07;3.20;;;3.00;;
64950;SDS011;51482;47.014;7.652;2023-04-10T12:19:34;3.75;;;3.53;;
64950;SDS011;51482;47.014;7.652;2023-04-10T12:22:01;4.93;;;4.03;;
64950;SDS011;51482;47.014;7.652;2023-04-10T12:24:43;3.38;;;3.08;;
64950;SDS011;51482;47.014;7.652;2023-04-10T12:27:16;3.30;;;3.00;;
64950;SDS011;51482;47.014;7.652;2023-04-10T12:29:52;4.15;;;3.85;;
64950;SDS011;51482;47.014;7.652;2023-04-10T12:32:20;3.05;;;2.85;;
64950;SDS011;51482;47.014;7.652;2023-04-10T12:34:49;5.70;;;5.35;;
64950;SDS011;51482;47.014;7.652;2023-04-10T12:37:16;3.10;;;2.90;;
64950;SDS011;51482;47.014;7.652;2023-04-10T12:39:42;5.35;;;4.95;;
64950;SDS011;51482;47.014;7.652;2023-04-10T12:42:11;2.80;;;2.60;;
64950;SDS011;51482;47.014;7.652;2023-04-10T12:44:55;4.50;;;4.25;;
64950;SDS011;51482;47.014;7.652;2023-04-10T12:47:23;2.72;;;2.53;;
64950;SDS011;51482;47.014;7.652;2023-04-10T12:52:35;2.80;;;2.63;;
64950;SDS011;51482;47.014;7.652;2023-04-10T12:55:09;3.13;;;2.92;;
64950;SDS011;51482;47.014;7.652;2023-04-10T12:57:43;5.07;;;4.78;;
64950;SDS011;51482;47.014;7.652;2023-04-10T13:00:10;2.90;;;2.40;;
64950;SDS011;51482;47.014;7.652;2023-04-10T13:02:41;5.28;;;4.93;;
64950;SDS011;51482;47.014;7.652;2023-04-10T13:05:07;3.63;;;3.33;;
64950;SDS011;51482;47.014;7.652;2023-04-10T13:07:33;3.20;;;3.00;;
64950;SDS011;51482;47.014;7.652;2023-04-10T13:10:00;3.03;;;2.83;;
64950;SDS011;51482;47.014;7.652;2023-04-10T13:12:26;2.50;;;2.40;;
64950;SDS011;51482;47.014;7.652;2023-04-10T13:14:54;3.00;;;2.70;;
64950;SDS011;51482;47.014;7.652;2023-04-10T13:17:20;3.38;;;3.08;;
64950;SDS011;51482;47.014;7.652;2023-04-10T13:19:46;6.78;;;6.18;;
64950;SDS011;51482;47.014;7.652;2023-04-10T13:22:12;3.10;;;2.90;;
64950;SDS011;51482;47.014;7.652;2023-04-10T13:24:38;9.88;;;9.07;;
64950;SDS011;51482;47.014;7.652;2023-04-10T13:27:03;5.13;;;4.72;;
64950;SDS011;51482;47.014;7.652;2023-04-10T13:29:29;5.45;;;4.95;;
64950;SDS011;51482;47.014;7.652;2023-04-10T13:31:54;5.97;;;4.25;;
64950;SDS011;51482;47.014;7.652;2023-04-10T13:34:20;5.70;;;5.30;;
64950;SDS011;51482;47.014;7.652;2023-04-10T13:36:45;5.97;;;5.47;;
64950;SDS011;51482;47.014;7.652;2023-04-10T13:39:12;3.55;;;3.35;;
64950;SDS011;51482;47.014;7.652;2023-04-10T13:41:38;5.47;;;5.07;;
64950;SDS011;51482;47.014;7.652;2023-04-10T13:44:03;2.75;;;2.50;;
64950;SDS011;51482;47.014;7.652;2023-04-10T13:46:29;2.70;;;2.50;;
64950;SDS011;51482;47.014;7.652;2023-04-10T13:48:55;2.95;;;2.75;;
64950;SDS011;51482;47.014;7.652;2023-04-10T13:51:20;2.65;;;2.55;;
64950;SDS011;51482;47.014;7.652;2023-04-10T13:53:46;5.10;;;4.80;;
64950;SDS011;51482;47.014;7.652;2023-04-10T13:56:11;2.78;;;2.58;;
64950;SDS011;51482;47.014;7.652;2023-04-10T13:58:37;4.68;;;4.47;;
64950;SDS011;51482;47.014;7.652;2023-04-10T14:01:03;2.58;;;2.38;;
64950;SDS011;51482;47.014;7.652;2023-04-10T14:03:29;2.60;;;2.40;;
64950;SDS011;51482;47.014;7.652;2023-04-10T14:05:54;2.83;;;2.63;;
64950;SDS011;51482;47.014;7.652;2023-04-10T14:08:20;3.00;;;2.80;;
64950;SDS011;51482;47.014;7.652;2023-04-10T14:10:45;4.38;;;4.18;;
64950;SDS011;51482;47.014;7.652;2023-04-10T14:13:18;4.07;;;2.50;;
64950;SDS011;51482;47.014;7.652;2023-04-10T14:15:43;4.65;;;4.35;;
64950;SDS011;51482;47.014;7.652;2023-04-10T14:18:09;3.00;;;2.80;;
64950;SDS011;51482;47.014;7.652;2023-04-10T14:20:35;3.60;;;3.30;;
64950;SDS011;51482;47.014;7.652;2023-04-10T14:23:00;4.43;;;2.95;;
64950;SDS011;51482;47.014;7.652;2023-04-10T14:25:26;3.15;;;2.88;;
64950;SDS011;51482;47.014;7.652;2023-04-10T14:27:52;3.97;;;3.50;;
64950;SDS011;51482;47.014;7.652;2023-04-10T14:30:17;2.83;;;2.50;;
64950;SDS011;51482;47.014;7.652;2023-04-10T14:32:43;5.05;;;4.75;;
64950;SDS011;51482;47.014;7.652;2023-04-10T14:35:08;3.30;;;2.63;;
64950;SDS011;51482;47.014;7.652;2023-04-10T14:37:34;3.28;;;3.08;;
64950;SDS011;51482;47.014;7.652;2023-04-10T14:40:00;3.08;;;2.88;;
64950;SDS011;51482;47.014;7.652;2023-04-10T14:42:28;3.17;;;2.97;;
64950;SDS011;51482;47.014;7.652;2023-04-10T14:44:54;3.92;;;3.63;;
64950;SDS011;51482;47.014;7.652;2023-04-10T14:47:19;5.07;;;3.45;;
64950;SDS011;51482;47.014;7.652;2023-04-10T14:49:45;4.93;;;4.63;;
64950;SDS011;51482;47.014;7.652;2023-04-10T14:52:10;4.85;;;3.80;;
64950;SDS011;51482;47.014;7.652;2023-04-10T14:54:36;4.22;;;3.92;;
64950;SDS011;51482;47.014;7.652;2023-04-10T14:57:01;2.78;;;2.58;;
64950;SDS011;51482;47.014;7.652;2023-04-10T14:59:28;3.15;;;2.92;;
64950;SDS011;51482;47.014;7.652;2023-04-10T15:01:53;3.42;;;3.22;;
64950;SDS011;51482;47.014;7.652;2023-04-10T15:04:19;3.13;;;2.92;;
64950;SDS011;51482;47.014;7.652;2023-04-10T15:06:45;4.95;;;4.75;;
64950;SDS011;51482;47.014;7.652;2023-04-10T15:09:10;2.72;;;2.53;;
64950;SDS011;51482;47.014;7.652;2023-04-10T15:11:36;4.47;;;4.18;;
64950;SDS011;51482;47.014;7.652;2023-04-10T15:14:01;3.70;;;3.40;;
64950;SDS011;51482;47.014;7.652;2023-04-10T15:16:28;3.33;;;3.08;;
64950;SDS011;51482;47.014;7.652;2023-04-10T15:18:54;3.95;;;3.75;;
64950;SDS011;51482;47.014;7.652;2023-04-10T15:21:20;4.15;;;3.85;;
64950;SDS011;51482;47.014;7.652;2023-04-10T15:23:45;5.25;;;4.75;;
64950;SDS011;51482;47.014;7.652;2023-04-10T15:26:14;3.55;;;3.25;;
64950;SDS011;51482;47.014;7.652;2023-04-10T15:28:41;6.18;;;5.68;;